Etusivu
METAR-TAF:

METAR-TAF

Lentoasemat :

Amarillo, Texas, Yhdysvallat

Leveyspiiri: 35-13-12N, Pituuspiiri: 101-43-02W, korkeus merenpinnasta: 1099 m

Tämänhetkinen sää

Tämä raportti tehtiin 16 minuuttia sitten, kello 19.53 UTC
Tuuli 7 kn idästä/kaakosta, vaihdellen idän ja etelän/kaakon välillä
Lämpötila 28°C
Kosteus 30%
Ilmanpaine 1016 hPa
Näkyvyys: 16.1 km
Muutamia pilviä 7500 ft:n korkeudessa

METAR: KAMA 241953Z 12007KT 090V150 10SM FEW075 28/09 A2999 RMK AO2 SLP107 T02830094

Aika: 15:09 (20:09 UTC)

Sääennuste

Tämä raportti tehtiin 2 tuntia ja 29 minuuttia sitten, kello 17.40 UTC
Ennuste voimassa 24. päivästä klo 18 UTC - 25. päivään klo 18 UTC
Tuuli 11 kn etelästä
Näkyvyys: 10 km
Hajanaisia pilviä 7000 ft:n korkeudessa
From 25. päivästä klo 1100 UTC
Tuuli 12 kn etelästä/lounaasta puuskistuen 22 kn:hen
Näkyvyys: 10 km
selkeää

TAF: KAMA 241740Z 2418/2518 17011KT P6SM SCT070 FM251100 20012G22KT P6SM SKC

Säähavainnot ja -ennusteet yli 4000 lentoasemalta (METAR- ja TAF-raportit).

Käytössä olevat sääasemat on merkitty karttaan keltaisilla ja punaisilla pisteillä.

Aseta hiiri pisteen päälle nähdäksesi sääaseman nimen.

Klikkaa sitten nähdäksesi säähavainnot ja -ennusteet.

Kartan vaihtaminen: klikkaa mustalla rastilla varustettuja vihreitä pisteitä, niin voit zoomata sisään; viivalla varustettua vihreää pistettä, niin voit zoomata ulos tai vihreitä nuolia, niin pääset viereisille kartoille.


METAR-TAF: